Time;durP1;ratioP1;P1;durP2;ratioP2;P2;SDS_P1;SDS_P2;PMS_P1;PMS_P2;Temp;Humidity;BMP_temperature;BMP_pressure;BME280_temperature;BME280_humidity;BME280_pressure;Samples;Min_cycle;Max_cycle;Signal;HPM_P1;HPM_P2
2023/01/21 00:00:15;;;;;;;24.97;11.57;;;0.40;99.90;;;;;;5059495;28;20517;-67
2023/01/21 00:02:40;;;;;;;27.02;10.88;;;0.30;99.90;;;;;;5061073;28;20043;-67
2023/01/21 00:05:06;;;;;;;26.13;11.50;;;0.30;99.90;;;;;;5047440;28;20033;-67
2023/01/21 00:07:32;;;;;;;28.85;11.85;;;0.30;99.90;;;;;;5062351;28;20481;-67
2023/01/21 00:09:57;;;;;;;29.73;10.47;;;0.30;99.90;;;;;;5035852;28;20494;-67
2023/01/21 00:12:23;;;;;;;30.13;11.40;;;0.20;99.90;;;;;;5023504;28;20106;-67
2023/01/21 00:14:49;;;;;;;26.60;10.70;;;0.20;99.90;;;;;;5058905;28;20508;-67
2023/01/21 00:17:14;;;;;;;26.47;12.17;;;0.10;99.90;;;;;;5059873;28;20422;-67
2023/01/21 00:19:40;;;;;;;24.70;10.90;;;0.10;99.90;;;;;;5063642;28;20124;-67
2023/01/21 00:22:06;;;;;;;26.03;10.83;;;0.10;99.90;;;;;;5059569;28;20372;-67
2023/01/21 00:24:31;;;;;;;32.10;11.30;;;0.10;99.90;;;;;;5043057;28;20298;-67
2023/01/21 00:26:57;;;;;;;27.43;10.77;;;0.10;99.90;;;;;;5059881;28;20421;-67
2023/01/21 00:29:23;;;;;;;23.00;10.30;;;0.00;99.90;;;;;;5059536;28;20042;-68
2023/01/21 00:31:51;;;;;;;29.13;10.73;;;0.00;99.90;;;;;;5054883;28;20091;-68
2023/01/21 00:34:17;;;;;;;23.08;10.15;;;-0.10;99.90;;;;;;5059904;28;20120;-68
2023/01/21 00:36:42;;;;;;;26.97;10.83;;;-0.10;99.90;;;;;;5055797;28;20041;-68
2023/01/21 00:39:08;;;;;;;30.87;11.07;;;0.00;99.90;;;;;;5044160;28;20387;-68
2023/01/21 00:41:36;;;;;;;24.63;10.70;;;-0.10;99.90;;;;;;5057594;28;20336;-68
2023/01/21 00:44:02;;;;;;;29.25;10.95;;;-0.10;99.90;;;;;;5035418;28;20044;-68
2023/01/21 00:46:27;;;;;;;20.92;9.80;;;-0.10;99.90;;;;;;5037042;28;20110;-69
2023/01/21 00:48:54;;;;;;;28.23;11.50;;;-0.20;99.90;;;;;;5057177;28;20322;-68
2023/01/21 00:51:20;;;;;;;26.38;11.05;;;-0.20;99.90;;;;;;5056237;28;20041;-68
2023/01/21 00:53:46;;;;;;;27.10;11.40;;;-0.20;99.90;;;;;;5033021;28;20555;-68
2023/01/21 00:56:12;;;;;;;24.23;11.40;;;-0.20;99.90;;;;;;5074800;22;20346;-68
2023/01/21 00:58:38;;;;;;;30.73;11.13;;;-0.30;99.90;;;;;;5061305;28;20058;-68
2023/01/21 01:01:10;;;;;;;22.50;9.48;;;-0.30;99.90;;;;;;5064074;28;20063;-68
2023/01/21 01:03:37;;;;;;;23.73;10.38;;;-0.30;99.90;;;;;;5066592;28;20062;-68
2023/01/21 01:06:06;;;;;;;23.13;9.65;;;-0.40;99.90;;;;;;5063128;28;20040;-68
2023/01/21 01:08:32;;;;;;;30.50;11.50;;;-0.40;99.90;;;;;;5054999;28;20503;-68
2023/01/21 01:10:58;;;;;;;26.50;10.98;;;-0.30;99.90;;;;;;5058577;28;20041;-68
2023/01/21 01:13:24;;;;;;;28.85;11.18;;;-0.40;99.90;;;;;;5064061;28;20071;-68
2023/01/21 01:15:53;;;;;;;25.53;10.00;;;-0.40;99.90;;;;;;5063352;28;20074;-69
2023/01/21 01:18:19;;;;;;;24.55;10.82;;;-0.40;99.90;;;;;;5061082;28;20413;-68
2023/01/21 01:20:46;;;;;;;26.20;11.33;;;-0.40;99.90;;;;;;5062613;28;20037;-68
2023/01/21 01:23:11;;;;;;;21.17;9.45;;;-0.40;99.90;;;;;;5062034;28;20563;-68
2023/01/21 01:25:37;;;;;;;26.87;11.00;;;-0.40;99.90;;;;;;5064732;28;20032;-68
2023/01/21 01:28:04;;;;;;;25.93;10.77;;;-0.40;99.90;;;;;;5064719;28;20037;-68
2023/01/21 01:30:29;;;;;;;26.67;10.82;;;-0.40;99.90;;;;;;5062833;28;20036;-69
2023/01/21 01:32:55;;;;;;;25.10;9.63;;;-0.40;99.90;;;;;;5057699;28;20559;-68
2023/01/21 01:35:21;;;;;;;23.57;10.33;;;-0.40;99.90;;;;;;5061447;28;20117;-68
2023/01/21 01:37:47;;;;;;;25.43;11.40;;;-0.50;99.90;;;;;;5055811;28;20045;-69
2023/01/21 01:40:13;;;;;;;27.20;10.33;;;-0.50;99.90;;;;;;5057540;28;20032;-68
2023/01/21 01:42:38;;;;;;;26.50;10.45;;;-0.50;99.90;;;;;;5052032;28;20045;-68
2023/01/21 01:45:11;;;;;;;22.77;10.23;;;-0.50;99.90;;;;;;5055204;28;20469;-68
2023/01/21 01:47:41;;;;;;;23.27;9.52;;;-0.50;99.90;;;;;;5051087;28;20056;-68
2023/01/21 01:50:10;;;;;;;26.88;9.80;;;-0.50;99.90;;;;;;5059073;28;20044;-68
2023/01/21 01:52:38;;;;;;;24.38;9.98;;;-0.50;99.90;;;;;;5060368;28;20036;-69
2023/01/21 01:55:04;;;;;;;24.00;9.20;;;-0.50;99.90;;;;;;5054218;28;20127;-68
2023/01/21 01:57:40;;;;;;;25.95;10.77;;;-0.50;99.90;;;;;;5061266;28;20074;-68
2023/01/21 02:00:10;;;;;;;31.95;10.75;;;-0.60;99.90;;;;;;5061043;28;20040;-68
2023/01/21 02:02:38;;;;;;;25.48;10.70;;;-0.60;99.90;;;;;;5050735;28;20469;-68
2023/01/21 02:05:07;;;;;;;30.15;10.38;;;-0.50;99.90;;;;;;5060673;28;20044;-69
2023/01/21 02:07:38;;;;;;;27.05;10.82;;;-0.50;99.90;;;;;;5054679;28;20127;-69
2023/01/21 02:10:09;;;;;;;24.55;10.60;;;-0.60;99.90;;;;;;5056069;28;20410;-68
2023/01/21 02:12:37;;;;;;;25.27;10.95;;;-0.60;99.90;;;;;;5058569;28;20129;-69
2023/01/21 02:15:03;;;;;;;26.98;10.70;;;-0.60;99.90;;;;;;5062556;28;20075;-69
2023/01/21 02:18:00;;;;;;;23.80;10.25;;;-0.60;99.90;;;;;;5056542;28;20037;-68
2023/01/21 02:20:29;;;;;;;28.25;10.95;;;-0.60;99.90;;;;;;5052414;28;20052;-69
2023/01/21 02:23:28;;;;;;;25.65;10.30;;;-0.50;99.90;;;;;;5051041;28;20033;-69
2023/01/21 02:26:16;;;;;;;33.50;12.35;;;-0.60;99.90;;;;;;5058192;28;20036;-69
2023/01/21 02:28:57;;;;;;;34.08;13.35;;;-0.50;99.90;;;;;;5052709;28;20469;-68
2023/01/21 02:31:57;;;;;;;29.50;13.05;;;-0.60;99.90;;;;;;5062734;28;20037;-68
2023/01/21 02:34:38;;;;;;;33.08;13.13;;;-0.60;99.90;;;;;;5059308;28;20047;-68
2023/01/21 02:37:14;;;;;;;32.75;13.05;;;-0.50;99.90;;;;;;5057935;28;20388;-69
2023/01/21 02:40:10;;;;;;;41.03;14.05;;;-0.60;99.90;;;;;;5061791;28;20055;-69
2023/01/21 02:43:04;;;;;;;29.92;13.02;;;-0.70;99.90;;;;;;5055893;28;20106;-68
2023/01/21 02:45:39;;;;;;;41.47;15.27;;;-0.60;99.90;;;;;;5057609;28;20915;-69
2023/01/21 02:48:12;;;;;;;38.30;16.40;;;-0.70;99.90;;;;;;5064144;28;20196;-69
2023/01/21 02:50:48;;;;;;;42.05;15.57;;;-0.70;99.90;;;;;;5046350;28;20044;-69
2023/01/21 02:53:27;;;;;;;38.78;15.23;;;-0.60;99.90;;;;;;5059460;28;20044;-69
2023/01/21 02:55:53;;;;;;;40.38;15.38;;;-0.60;99.90;;;;;;5057833;28;20039;-70
2023/01/21 02:58:29;;;;;;;32.95;13.60;;;-0.60;99.90;;;;;;5061693;28;20123;-68
2023/01/21 03:01:17;;;;;;;30.90;13.07;;;-0.60;99.90;;;;;;5061361;28;20060;-68
2023/01/21 03:03:59;;;;;;;32.50;13.07;;;-0.60;99.90;;;;;;5056591;28;20755;-68
2023/01/21 03:06:31;;;;;;;29.35;12.00;;;-0.50;99.90;;;;;;5063395;28;20044;-68
2023/01/21 03:09:22;;;;;;;35.13;13.75;;;-0.50;99.90;;;;;;5059820;28;20036;-68
2023/01/21 03:12:33;;;;;;;36.75;14.40;;;-0.50;99.90;;;;;;5060492;28;20473;-68
2023/01/21 03:18:22;;;;;;;33.58;12.48;;;-0.40;99.90;;;;;;5066644;28;20169;-68
2023/01/21 03:20:59;;;;;;;31.85;12.07;;;-0.40;99.90;;;;;;5058010;28;20040;-67
2023/01/21 03:23:35;;;;;;;26.75;12.10;;;-0.40;99.90;;;;;;5069604;28;20044;-68
2023/01/21 03:26:02;;;;;;;31.13;11.50;;;-0.30;99.90;;;;;;5068853;28;20036;-67
2023/01/21 03:28:31;;;;;;;29.30;11.55;;;-0.30;99.90;;;;;;5071735;28;20040;-68
2023/01/21 03:31:06;;;;;;;29.52;11.85;;;-0.40;99.90;;;;;;5060050;28;20033;-67
2023/01/21 03:33:35;;;;;;;26.25;11.10;;;-0.30;99.90;;;;;;5063430;28;20044;-68
2023/01/21 03:36:12;;;;;;;27.77;11.20;;;-0.40;99.90;;;;;;5054251;28;20052;-68
2023/01/21 03:38:46;;;;;;;26.92;11.45;;;-0.40;99.90;;;;;;5059452;28;20232;-67
2023/01/21 03:41:17;;;;;;;28.08;11.18;;;-0.40;99.90;;;;;;5060752;28;20120;-68
2023/01/21 03:43:43;;;;;;;26.00;10.82;;;-0.50;99.90;;;;;;5064467;28;20392;-68
2023/01/21 03:46:26;;;;;;;24.90;11.13;;;-0.50;99.90;;;;;;5063574;28;20123;-68
2023/01/21 03:49:02;;;;;;;24.92;10.88;;;-0.50;99.90;;;;;;5063653;28;20079;-68
2023/01/21 03:51:36;;;;;;;30.67;11.70;;;-0.50;99.90;;;;;;5070190;28;20044;-68
2023/01/21 03:54:02;;;;;;;30.13;11.40;;;-0.60;99.90;;;;;;5072368;28;20048;-68
2023/01/21 03:56:28;;;;;;;31.00;11.80;;;-0.60;99.90;;;;;;5073044;28;20073;-68
2023/01/21 03:58:54;;;;;;;25.37;10.83;;;-0.60;99.90;;;;;;5052096;28;20373;-68
2023/01/21 04:01:20;;;;;;;27.73;10.97;;;-0.60;99.90;;;;;;5072121;28;20509;-68
2023/01/21 04:03:45;;;;;;;26.17;10.77;;;-0.70;99.90;;;;;;5070914;28;20044;-68
2023/01/21 04:06:19;;;;;;;25.73;11.80;;;-0.60;99.90;;;;;;5067707;28;20383;-67
2023/01/21 04:08:46;;;;;;;28.40;11.95;;;-0.60;99.90;;;;;;5063146;28;20040;-67
2023/01/21 04:11:11;;;;;;;29.35;11.00;;;-0.70;99.90;;;;;;5066849;28;20040;-67
2023/01/21 04:13:37;;;;;;;32.13;11.67;;;-0.70;99.90;;;;;;5066584;28;20465;-67
2023/01/21 04:16:03;;;;;;;29.17;11.67;;;-0.70;99.90;;;;;;5063399;28;20166;-67
2023/01/21 04:18:29;;;;;;;26.40;10.70;;;-0.70;99.90;;;;;;5073562;28;20052;-68
2023/01/21 04:20:55;;;;;;;26.33;10.93;;;-0.70;99.90;;;;;;5080318;28;20029;-68
2023/01/21 04:23:21;;;;;;;28.60;11.73;;;-0.70;99.90;;;;;;5068805;28;20525;-68
2023/01/21 04:25:48;;;;;;;30.47;11.80;;;-0.70;99.90;;;;;;5067224;28;20040;-67
2023/01/21 04:28:13;;;;;;;32.95;13.45;;;-0.70;99.90;;;;;;5076966;28;20075;-67
2023/01/21 04:30:39;;;;;;;27.23;11.50;;;-0.70;99.90;;;;;;5064207;28;20114;-67
2023/01/21 04:33:05;;;;;;;27.83;11.83;;;-0.60;99.90;;;;;;5063224;28;20036;-67
2023/01/21 04:35:30;;;;;;;32.43;12.20;;;-0.60;99.90;;;;;;5066836;28;20513;-68
2023/01/21 04:37:56;;;;;;;29.83;12.83;;;-0.60;99.90;;;;;;5049929;28;20508;-67
2023/01/21 04:40:22;;;;;;;31.13;11.20;;;-0.50;99.90;;;;;;5065134;28;20040;-67
2023/01/21 04:42:47;;;;;;;32.67;12.37;;;-0.50;99.90;;;;;;5067115;28;20544;-67
2023/01/21 04:45:13;;;;;;;30.50;12.20;;;-0.40;99.90;;;;;;5068658;28;20047;-68
2023/01/21 04:47:43;;;;;;;29.63;12.13;;;-0.40;99.90;;;;;;5061043;28;20147;-67
2023/01/21 04:50:10;;;;;;;26.50;10.73;;;-0.40;99.90;;;;;;5075500;28;20044;-67
2023/01/21 04:52:37;;;;;;;28.52;11.93;;;-0.40;99.90;;;;;;5067571;28;20051;-67
2023/01/21 04:55:03;;;;;;;31.90;12.45;;;-0.30;99.90;;;;;;5075035;28;20510;-67
2023/01/21 04:57:29;;;;;;;36.10;13.45;;;-0.40;99.90;;;;;;5059918;28;20089;-65
2023/01/21 04:59:54;;;;;;;28.37;12.57;;;-0.30;99.90;;;;;;5062658;28;20371;-65
2023/01/21 05:02:20;;;;;;;29.10;12.80;;;-0.30;99.90;;;;;;5048592;28;20033;-65
2023/01/21 05:04:46;;;;;;;29.73;11.83;;;-0.30;99.90;;;;;;5064561;28;20124;-65
2023/01/21 05:07:12;;;;;;;29.93;12.13;;;-0.20;99.90;;;;;;5066479;28;20048;-65
2023/01/21 05:09:37;;;;;;;33.53;12.43;;;-0.20;99.90;;;;;;5072173;28;20048;-66
2023/01/21 05:12:03;;;;;;;27.50;11.63;;;-0.20;99.90;;;;;;5066302;28;20041;-65
2023/01/21 05:14:29;;;;;;;26.05;10.68;;;-0.20;99.90;;;;;;5063194;28;20154;-65
2023/01/21 05:16:55;;;;;;;29.50;12.43;;;-0.20;99.90;;;;;;5065211;28;20513;-65
2023/01/21 05:19:20;;;;;;;30.27;12.60;;;-0.10;99.90;;;;;;5065997;28;20079;-65
2023/01/21 05:21:46;;;;;;;28.63;11.97;;;-0.10;99.90;;;;;;5067836;28;20044;-65
2023/01/21 05:24:11;;;;;;;28.73;12.10;;;-0.10;99.90;;;;;;5067029;28;20429;-65
2023/01/21 05:26:37;;;;;;;28.97;11.10;;;-0.10;99.90;;;;;;5065393;28;20036;-65
2023/01/21 05:29:03;;;;;;;28.77;11.40;;;-0.10;99.90;;;;;;5064276;28;20421;-65
2023/01/21 05:31:29;;;;;;;24.20;10.75;;;-0.20;99.90;;;;;;5059574;28;20076;-65
2023/01/21 05:33:56;;;;;;;31.77;13.30;;;-0.10;99.90;;;;;;5063383;28;20047;-65
2023/01/21 05:36:22;;;;;;;26.85;12.43;;;-0.10;99.90;;;;;;5068226;28;20366;-65
2023/01/21 05:38:47;;;;;;;27.63;12.10;;;-0.20;99.90;;;;;;5057310;28;20032;-65
2023/01/21 05:41:13;;;;;;;34.40;13.20;;;-0.20;99.90;;;;;;5068638;28;20035;-65
2023/01/21 05:43:39;;;;;;;29.23;12.57;;;-0.20;99.90;;;;;;5074481;28;20040;-65
2023/01/21 05:46:05;;;;;;;30.50;12.60;;;-0.20;99.90;;;;;;5061297;28;20498;-65
2023/01/21 05:48:30;;;;;;;27.08;11.20;;;-0.20;99.90;;;;;;5070349;28;20405;-65
2023/01/21 05:50:56;;;;;;;29.47;11.67;;;-0.10;99.90;;;;;;5067913;28;20146;-65
2023/01/21 05:53:23;;;;;;;27.95;12.63;;;-0.20;99.90;;;;;;5066433;28;20039;-65
2023/01/21 05:55:53;;;;;;;28.30;13.32;;;-0.20;99.90;;;;;;5070176;28;20127;-65
2023/01/21 05:58:20;;;;;;;30.35;11.77;;;-0.10;99.90;;;;;;5071021;28;20412;-65
2023/01/21 06:00:47;;;;;;;30.33;12.70;;;-0.10;99.90;;;;;;5068009;28;20063;-65
2023/01/21 06:03:14;;;;;;;33.28;12.80;;;-0.10;99.90;;;;;;5061581;28;20044;-65
2023/01/21 06:05:40;;;;;;;;;;;-0.10;99.90;;;;;;5061420;28;20476;-65
2023/01/21 06:08:06;;;;;;;33.17;12.70;;;-0.10;99.90;;;;;;5069255;28;20018;-65
2023/01/21 06:10:32;;;;;;;33.70;12.52;;;-0.10;99.90;;;;;;5062012;28;20056;-65
2023/01/21 06:12:57;;;;;;;30.73;13.87;;;-0.10;99.90;;;;;;5068334;28;20052;-65
2023/01/21 06:15:24;;;;;;;35.70;14.10;;;-0.10;99.90;;;;;;5058620;28;20126;-65
2023/01/21 06:17:53;;;;;;;;;;;-0.10;99.90;;;;;;5062031;28;20102;-65
2023/01/21 06:20:19;;;;;;;27.42;11.82;;;-0.10;99.90;;;;;;5061049;28;20434;-65
2023/01/21 06:22:45;;;;;;;29.48;12.75;;;-0.10;99.90;;;;;;5057456;28;20127;-65
2023/01/21 06:25:10;;;;;;;29.92;12.98;;;-0.10;99.90;;;;;;5062990;28;20128;-65
2023/01/21 06:27:37;;;;;;;41.30;16.07;;;-0.10;99.90;;;;;;5067007;28;20478;-65
2023/01/21 06:30:07;;;;;;;35.08;14.63;;;-0.20;99.90;;;;;;5059651;28;20119;-65
2023/01/21 06:32:34;;;;;;;36.63;14.52;;;-0.20;99.90;;;;;;5055134;28;20045;-65
2023/01/21 06:35:00;;;;;;;;;;;-0.20;99.90;;;;;;5063582;28;20048;-65
2023/01/21 06:37:25;;;;;;;31.42;12.98;;;-0.30;99.90;;;;;;5060728;28;19924;-65
2023/01/21 06:39:51;;;;;;;38.23;15.37;;;-0.30;99.90;;;;;;5060142;28;20049;-64
2023/01/21 06:42:17;;;;;;;29.10;13.97;;;-0.30;99.90;;;;;;5064119;28;20502;-65
2023/01/21 06:44:43;;;;;;;34.70;14.33;;;-0.40;99.90;;;;;;5066890;28;20132;-65
2023/01/21 06:47:09;;;;;;;36.47;16.80;;;-0.40;99.90;;;;;;5060599;28;20281;-65
2023/01/21 06:49:35;;;;;;;45.70;18.33;;;-0.40;99.90;;;;;;5060295;28;20139;-65
2023/01/21 06:52:01;;;;;;;42.07;18.00;;;-0.40;99.90;;;;;;5069266;28;20040;-65
2023/01/21 06:54:26;;;;;;;42.90;18.00;;;-0.40;99.90;;;;;;5067674;28;20045;-65
2023/01/21 06:56:52;;;;;;;30.23;13.70;;;-0.50;99.90;;;;;;5072194;22;20044;-65
2023/01/21 06:59:18;;;;;;;32.17;13.60;;;-0.50;99.90;;;;;;5061704;28;20059;-65
2023/01/21 07:01:44;;;;;;;29.73;13.57;;;-0.50;99.90;;;;;;5064313;28;20056;-66
2023/01/21 07:04:09;;;;;;;29.97;11.90;;;-0.50;99.90;;;;;;5063384;28;20474;-65
2023/01/21 07:06:35;;;;;;;31.70;11.93;;;-0.50;99.90;;;;;;5062368;28;20037;-66
2023/01/21 07:09:02;;;;;;;36.88;13.77;;;-0.50;99.90;;;;;;5063575;28;20458;-67
2023/01/21 07:11:28;;;;;;;28.05;10.98;;;-0.60;99.90;;;;;;5066644;28;20094;-66
2023/01/21 07:13:54;;;;;;;33.05;12.32;;;-0.60;99.90;;;;;;5055821;28;20510;-67
2023/01/21 07:16:20;;;;;;;33.63;13.27;;;-0.60;99.90;;;;;;5059271;28;20094;-66
2023/01/21 07:18:45;;;;;;;40.87;15.53;;;-0.60;99.90;;;;;;5063945;28;20170;-66
2023/01/21 07:21:11;;;;;;;36.70;15.97;;;-0.70;99.90;;;;;;5062560;28;20063;-66
2023/01/21 07:23:36;;;;;;;43.17;16.90;;;-0.70;99.90;;;;;;5060325;28;20039;-66
2023/01/21 07:26:02;;;;;;;41.90;17.00;;;-0.70;99.90;;;;;;5057727;28;20499;-66
2023/01/21 07:28:28;;;;;;;40.10;15.73;;;-0.70;99.90;;;;;;5067599;28;20328;-67
2023/01/21 07:30:53;;;;;;;39.33;15.63;;;-0.70;99.90;;;;;;5060047;28;20035;-66
2023/01/21 07:33:19;;;;;;;35.77;15.50;;;-0.70;99.90;;;;;;5059993;28;20048;-67
2023/01/21 07:35:45;;;;;;;37.17;15.53;;;-0.70;99.90;;;;;;5063568;28;20036;-66
2023/01/21 07:38:10;;;;;;;34.07;14.27;;;-0.80;99.90;;;;;;5065299;28;20113;-67
2023/01/21 07:40:36;;;;;;;41.37;15.43;;;-0.80;99.90;;;;;;5066835;28;20079;-68
2023/01/21 07:43:04;;;;;;;36.38;15.15;;;-0.80;99.90;;;;;;5068794;28;20037;-67
2023/01/21 07:45:30;;;;;;;35.53;13.77;;;-0.90;99.90;;;;;;5073474;28;20398;-67
2023/01/21 07:47:56;;;;;;;35.90;13.90;;;-0.90;99.90;;;;;;5061887;28;20044;-67
2023/01/21 07:50:21;;;;;;;37.10;15.10;;;-0.90;99.90;;;;;;5055815;28;20066;-67
2023/01/21 07:52:47;;;;;;;31.17;13.17;;;-0.90;99.90;;;;;;5067472;28;20441;-67
2023/01/21 07:55:12;;;;;;;33.27;13.87;;;-0.90;99.90;;;;;;5056074;28;20098;-67
2023/01/21 07:57:38;;;;;;;35.80;13.60;;;-1.00;99.90;;;;;;5066771;28;20087;-68
2023/01/21 08:00:04;;;;;;;37.07;15.57;;;-1.00;99.90;;;;;;5077716;28;20127;-67
2023/01/21 08:02:30;;;;;;;41.58;14.80;;;-1.00;99.90;;;;;;5064317;28;20043;-67
2023/01/21 08:04:55;;;;;;;35.77;15.23;;;-1.00;99.90;;;;;;5067722;28;20494;-67
2023/01/21 08:07:21;;;;;;;37.00;13.87;;;-1.00;99.90;;;;;;5072367;28;20474;-68
2023/01/21 08:09:47;;;;;;;32.73;14.50;;;-1.00;99.90;;;;;;5068099;28;20319;-67
2023/01/21 08:12:12;;;;;;;35.93;14.23;;;-1.00;99.90;;;;;;5076647;28;20033;-67
2023/01/21 08:14:38;;;;;;;31.23;12.87;;;-1.00;99.90;;;;;;5061705;28;20088;-67
2023/01/21 08:17:03;;;;;;;37.07;15.33;;;-1.00;99.90;;;;;;5065434;28;20043;-67
2023/01/21 08:19:29;;;;;;;34.20;15.07;;;-1.00;99.90;;;;;;5068175;28;20482;-68
2023/01/21 08:21:55;;;;;;;42.63;16.80;;;-1.00;99.90;;;;;;5074172;28;20117;-67
2023/01/21 08:24:20;;;;;;;40.00;15.33;;;-1.00;99.90;;;;;;5066329;28;20050;-68
2023/01/21 08:26:47;;;;;;;38.20;15.20;;;-1.00;99.90;;;;;;5075741;28;20452;-67
2023/01/21 08:29:13;;;;;;;38.83;15.35;;;-0.90;99.90;;;;;;5061525;28;20265;-67
2023/01/21 08:31:39;;;;;;;42.10;15.93;;;-0.90;99.90;;;;;;5061374;28;20330;-67
2023/01/21 08:34:04;;;;;;;42.93;16.87;;;-0.80;99.90;;;;;;5064346;28;20037;-66
2023/01/21 08:36:30;;;;;;;37.63;14.50;;;-0.80;99.90;;;;;;5070450;28;20052;-67
2023/01/21 08:39:05;;;;;;;33.03;14.87;;;-0.80;99.90;;;;;;5054495;28;20040;-67
2023/01/21 08:41:31;;;;;;;36.92;14.77;;;-0.70;99.90;;;;;;5057681;28;20062;-67
2023/01/21 08:43:57;;;;;;;36.50;14.50;;;-0.70;99.90;;;;;;5070482;28;20033;-74
2023/01/21 08:46:22;;;;;;;40.33;15.57;;;-0.60;99.90;;;;;;5060675;28;20051;-68
2023/01/21 08:48:48;;;;;;;39.60;15.83;;;-0.60;99.90;;;;;;5065326;28;20139;-68
2023/01/21 08:51:14;;;;;;;44.30;14.70;;;-0.60;99.90;;;;;;5062985;28;20032;-67
2023/01/21 08:53:39;;;;;;;26.97;14.37;;;-0.50;99.90;;;;;;5064895;28;20190;-67
2023/01/21 08:56:05;;;;;;;42.00;16.50;;;-0.50;99.90;;;;;;5065713;28;20048;-67
2023/01/21 08:58:31;;;;;;;37.73;15.13;;;-0.50;99.90;;;;;;5057329;28;20405;-67
2023/01/21 09:00:57;;;;;;;38.00;16.42;;;-0.40;99.90;;;;;;5065437;28;20390;-67
2023/01/21 09:03:23;;;;;;;36.90;15.17;;;-0.40;99.90;;;;;;5065596;28;20036;-68
2023/01/21 09:05:53;;;;;;;38.70;16.05;;;-0.40;99.90;;;;;;5081160;28;20044;-68
2023/01/21 09:08:18;;;;;;;40.42;15.65;;;-0.30;99.90;;;;;;5063856;28;20051;-67
2023/01/21 09:11:02;;;;;;;36.13;15.37;;;-0.20;99.90;;;;;;5061243;28;20036;-68
2023/01/21 09:13:36;;;;;;;34.40;14.57;;;-0.30;99.90;;;;;;5065005;28;20061;-67
2023/01/21 09:16:07;;;;;;;35.83;15.98;;;-0.20;99.90;;;;;;5063327;28;20044;-67
2023/01/21 09:18:33;;;;;;;39.35;17.85;;;-0.20;99.90;;;;;;5063387;28;20123;-67
2023/01/21 09:21:03;;;;;;;34.30;15.27;;;-0.10;99.90;;;;;;5061132;28;20120;-68
2023/01/21 09:23:33;;;;;;;36.22;16.33;;;-0.10;99.90;;;;;;5067421;28;20056;-67
2023/01/21 09:26:15;;;;;;;37.55;15.07;;;0.00;99.90;;;;;;5068905;28;20041;-67
2023/01/21 09:28:43;;;;;;;35.78;15.48;;;0.10;99.90;;;;;;5063664;28;20387;-67
2023/01/21 09:31:13;;;;;;;39.33;15.65;;;0.10;99.90;;;;;;5065343;28;20296;-67
2023/01/21 09:33:41;;;;;;;38.35;14.25;;;0.10;99.90;;;;;;5060910;28;20045;-67
2023/01/21 09:36:09;;;;;;;38.85;14.48;;;0.20;99.90;;;;;;5066153;28;20155;-67
2023/01/21 09:38:35;;;;;;;38.00;15.02;;;0.30;99.90;;;;;;5065894;28;20043;-67
2023/01/21 09:41:29;;;;;;;45.43;16.70;;;0.30;99.90;;;;;;5065141;28;20438;-68
2023/01/21 09:44:04;;;;;;;34.92;15.13;;;0.40;99.90;;;;;;5051452;28;20060;-67
2023/01/21 09:46:41;;;;;;;38.10;15.10;;;0.40;99.90;;;;;;5065161;28;20044;-67
2023/01/21 09:49:11;;;;;;;;;;;0.50;99.90;;;;;;5036165;28;20041;-67
2023/01/21 09:51:49;;;;;;;39.03;14.93;;;0.60;99.90;;;;;;5064772;28;19935;-67
2023/01/21 09:54:27;;;;;;;35.83;13.95;;;0.60;99.90;;;;;;5067636;28;20469;-66
2023/01/21 09:57:35;;;;;;;34.17;14.52;;;0.70;99.90;;;;;;5061906;28;20042;-67
2023/01/21 10:00:35;;;;;;;37.67;16.55;;;0.70;99.90;;;;;;5054001;28;20109;-67
2023/01/21 10:03:18;;;;;;;39.25;15.27;;;0.80;99.90;;;;;;5066211;28;20092;-68
2023/01/21 10:05:46;;;;;;;38.05;14.55;;;0.90;99.90;;;;;;5065460;28;20065;-67
2023/01/21 10:08:27;;;;;;;33.78;13.57;;;0.90;99.90;;;;;;5065204;28;20115;-68
2023/01/21 10:11:07;;;;;;;33.05;13.73;;;1.00;99.90;;;;;;5074060;28;20104;-66
2023/01/21 10:13:48;;;;;;;35.33;13.88;;;1.10;99.90;;;;;;5060389;28;20044;-67
2023/01/21 10:16:31;;;;;;;32.90;14.73;;;1.20;99.90;;;;;;5061792;28;20102;-67
2023/01/21 10:19:00;;;;;;;33.63;13.60;;;1.20;99.90;;;;;;5066761;28;20390;-67
2023/01/21 10:21:44;;;;;;;33.15;14.70;;;1.30;99.90;;;;;;5063429;28;20039;-67
2023/01/21 10:24:15;;;;;;;38.50;14.70;;;1.40;99.90;;;;;;5064122;28;20426;-67
2023/01/21 10:26:43;;;;;;;36.85;15.32;;;1.50;99.90;;;;;;5059757;28;20101;-67
2023/01/21 10:29:17;;;;;;;42.83;15.25;;;1.60;99.90;;;;;;5063390;28;20108;-67
2023/01/21 10:31:53;;;;;;;31.20;13.45;;;1.70;99.90;;;;;;5054506;28;20338;-67
2023/01/21 10:34:19;;;;;;;35.05;14.23;;;1.80;99.90;;;;;;5064696;28;20475;-67
2023/01/21 10:37:12;;;;;;;30.60;13.05;;;1.90;99.90;;;;;;5054213;28;20036;-67
2023/01/21 10:39:46;;;;;;;37.03;14.63;;;2.00;99.90;;;;;;5056058;28;20056;-67
2023/01/21 10:42:46;;;;;;;36.78;14.63;;;2.10;99.90;;;;;;5052431;28;20490;-68
2023/01/21 10:45:30;;;;;;;35.15;13.88;;;2.20;99.90;;;;;;5066832;28;20036;-67
2023/01/21 10:48:13;;;;;;;33.67;13.25;;;2.30;99.90;;;;;;5057884;28;20071;-67
2023/01/21 10:50:46;;;;;;;29.60;13.30;;;2.40;99.90;;;;;;5060923;28;20588;-67
2023/01/21 10:53:38;;;;;;;32.33;14.77;;;2.50;99.90;;;;;;5066284;28;20055;-67
2023/01/21 10:56:22;;;;;;;33.58;13.43;;;2.60;99.90;;;;;;5056576;28;20105;-68
2023/01/21 10:59:04;;;;;;;32.67;12.77;;;2.70;99.90;;;;;;5068921;28;20040;-67
2023/01/21 11:01:38;;;;;;;34.28;12.63;;;2.80;99.90;;;;;;5062232;28;20425;-68
2023/01/21 11:04:13;;;;;;;25.50;12.40;;;2.90;99.90;;;;;;5058210;28;20044;-67
2023/01/21 11:06:39;;;;;;;26.27;11.73;;;3.00;99.90;;;;;;5063145;28;20052;-67
2023/01/21 11:09:10;;;;;;;32.45;13.68;;;3.10;99.90;;;;;;5066029;28;20105;-67
2023/01/21 11:11:36;;;;;;;27.20;12.52;;;3.20;99.90;;;;;;5083510;28;20397;-67
2023/01/21 11:14:02;;;;;;;25.48;11.35;;;3.30;99.90;;;;;;5056865;28;20049;-68
2023/01/21 11:16:42;;;;;;;27.55;11.90;;;3.40;99.90;;;;;;5056660;28;20048;-68
2023/01/21 11:19:11;;;;;;;25.88;11.02;;;3.40;99.90;;;;;;5069389;28;20123;-67
2023/01/21 11:21:38;;;;;;;32.85;12.35;;;3.50;99.90;;;;;;5065190;28;20072;-67
2023/01/21 11:24:22;;;;;;;26.45;11.63;;;3.60;99.90;;;;;;5065180;28;20090;-66
2023/01/21 11:26:50;;;;;;;23.48;10.38;;;3.60;99.90;;;;;;5068703;28;20043;-67
2023/01/21 11:29:18;;;;;;;27.73;10.55;;;3.70;99.90;;;;;;5068366;28;20044;-66
2023/01/21 11:31:49;;;;;;;23.92;11.25;;;3.80;99.90;;;;;;5064638;28;20041;-68
2023/01/21 11:34:16;;;;;;;24.70;11.07;;;3.80;99.90;;;;;;5068485;28;20048;-67
2023/01/21 11:37:02;;;;;;;23.52;10.65;;;3.90;99.90;;;;;;5064852;28;20582;-66
2023/01/21 11:39:35;;;;;;;22.75;10.07;;;4.00;99.90;;;;;;5052243;28;20091;-66
2023/01/21 11:42:07;;;;;;;19.85;9.00;;;4.00;99.90;;;;;;5057285;28;20110;-66
2023/01/21 11:44:33;;;;;;;22.52;9.35;;;4.10;99.90;;;;;;5072950;28;20033;-67
2023/01/21 11:46:59;;;;;;;21.10;9.15;;;4.20;99.90;;;;;;5072513;28;20062;-66
2023/01/21 11:49:32;;;;;;;23.35;10.32;;;4.30;99.90;;;;;;5062762;28;20441;-67
2023/01/21 11:52:16;;;;;;;17.88;8.75;;;4.30;99.90;;;;;;5063717;28;20053;-67
2023/01/21 11:54:42;;;;;;;22.38;9.27;;;4.40;99.90;;;;;;5061937;28;20482;-67
2023/01/21 11:57:21;;;;;;;19.05;8.30;;;4.50;99.90;;;;;;5060329;28;20049;-67
2023/01/21 11:59:47;;;;;;;22.88;9.93;;;4.60;99.90;;;;;;5059652;28;20529;-66
2023/01/21 12:02:18;;;;;;;18.95;9.18;;;4.60;99.90;;;;;;5062408;28;20043;-67
2023/01/21 12:04:56;;;;;;;18.60;8.63;;;4.70;99.90;;;;;;5057801;28;20074;-67
2023/01/21 12:07:26;;;;;;;17.08;7.85;;;4.70;99.90;;;;;;5058419;28;20055;-67
2023/01/21 12:10:07;;;;;;;16.30;7.45;;;4.80;99.90;;;;;;5067060;28;20048;-67
2023/01/21 12:12:57;;;;;;;20.95;9.68;;;4.80;99.90;;;;;;5058910;28;20473;-67
2023/01/21 12:15:41;;;;;;;18.73;8.68;;;4.80;99.90;;;;;;5059109;28;20123;-67
2023/01/21 12:18:16;;;;;;;19.88;8.18;;;5.00;99.90;;;;;;5060387;28;20085;-67
2023/01/21 12:21:03;;;;;;;15.93;7.57;;;5.10;99.90;;;;;;5054930;28;20045;-67
2023/01/21 12:23:41;;;;;;;17.83;7.78;;;5.10;99.90;;;;;;5062994;28;20143;-66
2023/01/21 12:26:24;;;;;;;18.02;8.52;;;5.10;99.90;;;;;;5065657;28;20052;-66
2023/01/21 12:29:08;;;;;;;15.98;8.02;;;5.20;99.90;;;;;;5054082;28;20084;-67
2023/01/21 12:31:43;;;;;;;16.77;7.20;;;5.30;99.90;;;;;;5058602;28;20497;-66
2023/01/21 12:34:19;;;;;;;17.20;8.40;;;5.30;99.90;;;;;;5064463;28;20040;-66
2023/01/21 12:37:20;;;;;;;16.38;7.65;;;5.40;99.90;;;;;;5053948;28;20036;-66
2023/01/21 12:39:48;;;;;;;16.85;7.55;;;5.50;99.90;;;;;;5063943;28;20044;-67
2023/01/21 12:42:36;;;;;;;19.75;7.78;;;5.40;99.90;;;;;;5061501;28;20507;-67
2023/01/21 12:45:22;;;;;;;17.23;8.57;;;5.50;99.90;;;;;;5051823;28;20509;-67
2023/01/21 12:47:55;;;;;;;11.93;6.78;;;5.50;99.90;;;;;;5061766;28;20048;-67
2023/01/21 12:50:30;;;;;;;13.68;7.65;;;5.50;99.90;;;;;;5066119;28;20557;-67
2023/01/21 12:53:04;;;;;;;15.73;7.40;;;5.50;99.90;;;;;;5061795;28;20076;-68